Time;durP1;ratioP1;P1;durP2;ratioP2;P2;SDS_P1;SDS_P2;PMS_P1;PMS_P2;Temp;Humidity;BMP_temperature;BMP_pressure;BME280_temperature;BME280_humidity;BME280_pressure;Samples;Min_cycle;Max_cycle;Signal;HPM_P1;HPM_P2
2021/09/28 00:01:51;;;;;;;7.90;1.25;;;15.80;99.90;;;;;;5056799;28;20173;-94
2021/09/28 00:04:17;;;;;;;3.10;1.02;;;15.80;99.90;;;;;;5056427;28;20230;-95
2021/09/28 00:06:43;;;;;;;2.95;1.20;;;15.80;99.90;;;;;;5056080;28;20174;-94
2021/09/28 00:09:10;;;;;;;4.13;1.00;;;15.80;99.90;;;;;;5056635;28;20208;-93
2021/09/28 00:11:41;;;;;;;4.15;1.30;;;15.80;99.90;;;;;;5057542;28;20173;-96
2021/09/28 00:14:06;;;;;;;4.53;1.30;;;15.80;99.90;;;;;;5056430;28;20190;-96
2021/09/28 00:16:32;;;;;;;4.00;1.27;;;15.80;99.90;;;;;;5056342;28;20198;-94
2021/09/28 00:19:01;;;;;;;4.65;1.13;;;15.80;99.90;;;;;;5056299;28;20197;-94
2021/09/28 00:21:27;;;;;;;4.47;1.42;;;15.70;99.90;;;;;;5055802;28;20174;-93
2021/09/28 00:23:53;;;;;;;4.93;1.20;;;15.70;99.90;;;;;;5056416;28;20174;-95
2021/09/28 00:26:19;;;;;;;4.43;1.20;;;15.70;99.90;;;;;;5056281;28;20193;-96
2021/09/28 00:28:44;;;;;;;4.57;1.40;;;15.70;99.90;;;;;;5056264;28;20205;-95
2021/09/28 00:31:10;;;;;;;4.50;1.35;;;15.70;99.90;;;;;;5056271;28;20196;-94
2021/09/28 00:33:36;;;;;;;3.03;1.05;;;15.70;99.90;;;;;;5056462;28;20174;-95
2021/09/28 00:36:02;;;;;;;3.65;1.25;;;15.70;99.90;;;;;;5055871;28;20192;-95
2021/09/28 00:38:28;;;;;;;2.53;1.13;;;15.70;99.90;;;;;;5056650;28;20271;-95
2021/09/28 00:40:55;;;;;;;3.63;1.27;;;15.70;99.90;;;;;;5056034;28;20630;-94
2021/09/28 00:43:24;;;;;;;5.25;1.35;;;15.70;99.90;;;;;;5056037;28;20625;-96
2021/09/28 00:46:00;;;;;;;3.67;1.25;;;15.70;99.90;;;;;;5056282;28;20206;-95
2021/09/28 00:48:28;;;;;;;3.20;1.00;;;15.70;99.90;;;;;;5055933;28;20197;-94
2021/09/28 00:51:10;;;;;;;7.30;1.20;;;15.70;99.90;;;;;;5056061;28;20180;-94
2021/09/28 00:53:39;;;;;;;4.10;1.00;;;15.70;99.90;;;;;;5056542;28;20170;-95
2021/09/28 00:56:09;;;;;;;5.20;1.60;;;15.70;99.90;;;;;;5056441;28;20170;-96
2021/09/28 00:58:37;;;;;;;2.47;0.93;;;15.70;99.90;;;;;;5056905;28;20316;-93
2021/09/28 01:01:30;;;;;;;3.08;1.05;;;15.70;99.90;;;;;;5056653;28;20633;-95
2021/09/28 01:03:59;;;;;;;4.07;1.05;;;15.70;99.90;;;;;;5055930;28;20225;-94
2021/09/28 01:06:26;;;;;;;4.28;1.00;;;15.70;99.90;;;;;;5056221;28;20652;-94
2021/09/28 01:08:54;;;;;;;4.35;1.00;;;15.70;99.90;;;;;;5055533;28;20220;-96
2021/09/28 01:11:21;;;;;;;2.92;1.30;;;15.60;99.90;;;;;;5056437;28;20158;-95
2021/09/28 01:13:48;;;;;;;4.00;1.17;;;15.60;99.90;;;;;;5056205;28;20166;-95
2021/09/28 01:16:17;;;;;;;3.70;1.35;;;15.60;99.90;;;;;;5056347;28;20192;-95
2021/09/28 01:18:50;;;;;;;3.92;1.40;;;15.60;99.90;;;;;;5055964;28;20263;-94
2021/09/28 01:21:19;;;;;;;2.58;1.08;;;15.60;99.90;;;;;;5057208;28;20162;-95
2021/09/28 01:23:49;;;;;;;4.90;1.17;;;15.60;99.90;;;;;;5058827;28;20165;-94
2021/09/28 01:26:18;;;;;;;5.20;1.10;;;15.60;99.90;;;;;;5058391;28;20621;-93
2021/09/28 01:28:45;;;;;;;3.83;1.00;;;15.60;99.90;;;;;;5058880;28;20214;-94
2021/09/28 01:31:13;;;;;;;5.47;1.20;;;15.60;99.90;;;;;;5059262;28;20547;-94
2021/09/28 01:33:39;;;;;;;4.82;1.23;;;15.60;99.90;;;;;;5058268;28;20174;-96
2021/09/28 01:36:13;;;;;;;2.95;1.00;;;15.60;99.90;;;;;;5058851;28;20262;-96
2021/09/28 01:38:46;;;;;;;5.03;1.38;;;15.60;99.90;;;;;;5058393;28;20197;-94
2021/09/28 01:41:14;;;;;;;6.90;1.25;;;15.50;99.90;;;;;;5057491;28;20174;-94
2021/09/28 01:43:43;;;;;;;4.30;1.40;;;15.60;99.90;;;;;;5058065;28;20205;-95
2021/09/28 01:46:09;;;;;;;6.05;1.40;;;15.50;99.90;;;;;;5057695;28;20198;-95
2021/09/28 01:48:46;;;;;;;5.70;1.60;;;15.50;99.90;;;;;;5057722;28;20216;-95
2021/09/28 01:51:13;;;;;;;5.95;1.45;;;15.50;99.90;;;;;;5057477;28;20166;-95
2021/09/28 01:53:42;;;;;;;6.20;1.70;;;15.60;99.90;;;;;;5058764;28;20166;-94
2021/09/28 01:56:26;;;;;;;6.07;1.80;;;15.50;99.90;;;;;;5055903;28;20170;-93
2021/09/28 01:58:53;;;;;;;4.30;1.58;;;15.50;99.90;;;;;;5056177;28;20198;-95
2021/09/28 02:01:21;;;;;;;5.78;2.05;;;15.50;99.90;;;;;;5057680;28;20220;-95
2021/09/28 02:03:59;;;;;;;8.48;2.13;;;15.50;99.90;;;;;;5056090;28;20253;-95
2021/09/28 02:06:27;;;;;;;3.10;1.80;;;15.40;99.90;;;;;;5056751;28;20169;-92
2021/09/28 02:08:54;;;;;;;5.65;2.08;;;15.40;99.90;;;;;;5056860;28;20221;-94
2021/09/28 02:11:25;;;;;;;4.78;2.38;;;15.30;99.90;;;;;;5056583;28;20170;-95
2021/09/28 02:14:01;;;;;;;7.75;2.30;;;15.30;99.90;;;;;;5055990;28;20170;-95
2021/09/28 02:16:33;;;;;;;5.55;2.10;;;15.20;99.90;;;;;;5056011;28;20170;-95
2021/09/28 02:18:59;;;;;;;7.20;2.67;;;15.20;99.90;;;;;;5056467;28;20197;-95
2021/09/28 02:21:28;;;;;;;5.47;2.60;;;15.10;99.90;;;;;;5056408;28;20180;-95
2021/09/28 02:23:54;;;;;;;4.72;2.35;;;15.10;99.90;;;;;;5056567;28;20241;-96
2021/09/28 02:26:23;;;;;;;7.22;2.75;;;15.00;99.90;;;;;;5056282;28;20208;-94
2021/09/28 02:28:49;;;;;;;4.97;2.45;;;14.90;99.90;;;;;;5056223;28;20210;-94
2021/09/28 02:31:22;;;;;;;6.00;2.78;;;14.90;99.90;;;;;;5059332;28;20177;-95
2021/09/28 02:33:47;;;;;;;5.28;2.83;;;14.90;99.90;;;;;;5060577;28;20173;-95
2021/09/28 02:36:14;;;;;;;7.95;2.55;;;14.80;99.90;;;;;;5060465;28;20645;-95
2021/09/28 02:38:47;;;;;;;10.50;2.90;;;14.80;99.90;;;;;;5058960;28;20200;-94
2021/09/28 02:41:31;;;;;;;7.18;2.70;;;14.70;99.90;;;;;;5058462;28;20167;-95
2021/09/28 02:44:00;;;;;;;6.78;2.90;;;14.70;99.90;;;;;;5059016;28;20170;-95
2021/09/28 02:46:27;;;;;;;6.43;2.95;;;14.70;99.90;;;;;;5058970;28;20170;-95
2021/09/28 02:48:53;;;;;;;9.38;2.83;;;14.70;99.90;;;;;;5058833;28;20711;-96
2021/09/28 02:51:19;;;;;;;7.25;2.88;;;14.70;99.90;;;;;;5058743;28;20177;-95
2021/09/28 02:53:45;;;;;;;7.50;2.63;;;14.80;99.90;;;;;;5058836;28;20198;-96
2021/09/28 02:56:45;;;;;;;4.57;3.05;;;14.80;99.90;;;;;;5058379;28;20188;-94
2021/09/28 02:59:12;;;;;;;6.97;3.42;;;14.80;99.90;;;;;;5058395;28;20198;-96
2021/09/28 03:01:39;;;;;;;8.25;3.15;;;14.80;99.90;;;;;;5057690;28;20184;-95
2021/09/28 03:04:06;;;;;;;6.82;3.03;;;14.80;99.90;;;;;;5058005;28;20285;-95
2021/09/28 03:06:43;;;;;;;4.03;3.40;;;14.80;99.90;;;;;;5058214;28;20174;-96
2021/09/28 03:09:09;;;;;;;7.78;3.00;;;14.80;99.90;;;;;;5057693;28;20236;-95
2021/09/28 03:11:49;;;;;;;8.93;3.08;;;14.70;99.90;;;;;;5057868;28;20163;-95
2021/09/28 03:14:27;;;;;;;7.28;3.38;;;14.70;99.90;;;;;;5057180;28;20216;-95
2021/09/28 03:16:54;;;;;;;10.48;4.05;;;14.70;99.90;;;;;;5057215;28;20164;-94
2021/09/28 03:19:20;;;;;;;5.80;3.58;;;14.70;99.90;;;;;;5057564;28;20205;-94
2021/09/28 03:21:54;;;;;;;10.32;3.85;;;14.60;99.90;;;;;;5057628;28;20170;-95
2021/09/28 03:24:24;;;;;;;10.57;3.72;;;14.60;99.90;;;;;;5057250;28;20166;-93
2021/09/28 03:26:52;;;;;;;10.68;3.92;;;14.60;99.90;;;;;;5057044;28;20181;-95
2021/09/28 03:29:18;;;;;;;9.23;3.97;;;14.60;99.90;;;;;;5056399;28;20300;-94
2021/09/28 03:31:49;;;;;;;9.02;4.30;;;14.60;99.90;;;;;;5057121;28;20213;-94
2021/09/28 03:34:39;;;;;;;9.65;4.60;;;14.60;99.90;;;;;;5056891;28;20166;-95
2021/09/28 03:37:11;;;;;;;10.52;4.78;;;14.60;99.90;;;;;;5056367;28;20166;-95
2021/09/28 03:39:41;;;;;;;8.60;4.65;;;14.70;99.90;;;;;;5056672;28;20570;-94
2021/09/28 03:42:09;;;;;;;11.15;4.18;;;14.70;99.90;;;;;;5057502;28;20178;-93
2021/09/28 03:44:36;;;;;;;8.50;4.65;;;14.70;99.90;;;;;;5057272;28;20170;-94
2021/09/28 03:47:06;;;;;;;10.38;4.93;;;14.60;99.90;;;;;;5056743;28;20170;-94
2021/09/28 03:49:31;;;;;;;10.25;5.22;;;14.60;99.90;;;;;;5056933;28;20205;-94
2021/09/28 03:51:58;;;;;;;7.47;4.57;;;14.60;99.90;;;;;;5056687;28;20170;-95
2021/09/28 03:54:24;;;;;;;15.57;4.70;;;14.60;99.90;;;;;;5056427;28;20158;-96
2021/09/28 03:57:07;;;;;;;7.95;5.32;;;14.60;99.90;;;;;;5057780;28;20209;-95
2021/09/28 03:59:33;;;;;;;11.98;5.32;;;14.50;99.90;;;;;;5056152;28;20205;-94
2021/09/28 04:02:01;;;;;;;11.43;5.47;;;14.60;99.90;;;;;;5056508;28;20300;-94
2021/09/28 04:04:29;;;;;;;11.63;5.00;;;14.50;99.90;;;;;;5055954;28;20221;-95
2021/09/28 04:07:03;;;;;;;8.73;5.25;;;14.50;99.90;;;;;;5056077;28;20576;-95
2021/09/28 04:09:29;;;;;;;13.02;5.30;;;14.40;99.90;;;;;;5056128;28;20220;-95
2021/09/28 04:12:34;;;;;;;12.77;5.57;;;14.30;99.90;;;;;;5056015;28;20173;-94
2021/09/28 04:15:04;;;;;;;9.48;6.20;;;14.30;99.90;;;;;;5055454;28;20170;-93
2021/09/28 04:17:30;;;;;;;9.50;5.70;;;14.20;99.90;;;;;;5055937;28;20170;-94
2021/09/28 04:20:22;;;;;;;9.95;5.60;;;14.20;99.90;;;;;;5056264;28;20185;-94
2021/09/28 04:22:59;;;;;;;9.55;6.03;;;14.20;99.90;;;;;;5056077;28;20213;-95
2021/09/28 04:25:25;;;;;;;26.98;6.53;;;14.10;99.90;;;;;;5055462;28;20177;-95
2021/09/28 04:27:54;;;;;;;11.65;5.63;;;14.00;99.90;;;;;;5055491;28;20219;-95
2021/09/28 04:30:21;;;;;;;13.30;6.30;;;14.00;99.90;;;;;;5055793;28;20194;-94
2021/09/28 04:32:55;;;;;;;9.25;5.65;;;14.00;99.90;;;;;;5055055;28;20170;-94
2021/09/28 04:35:36;;;;;;;9.48;5.72;;;14.00;99.90;;;;;;5055664;28;20166;-94
2021/09/28 04:38:05;;;;;;;13.70;6.28;;;13.90;99.90;;;;;;5055350;28;20201;-95
2021/09/28 04:40:37;;;;;;;13.43;6.55;;;13.90;99.90;;;;;;5055749;28;20169;-94
2021/09/28 04:43:18;;;;;;;10.45;6.50;;;13.90;99.90;;;;;;5055306;28;20300;-94
2021/09/28 04:45:50;;;;;;;15.32;6.25;;;13.90;99.90;;;;;;5055605;28;20174;-95
2021/09/28 04:48:22;;;;;;;11.85;6.45;;;13.90;99.90;;;;;;5055049;28;20198;-96
2021/09/28 04:50:56;;;;;;;14.15;6.57;;;13.80;99.90;;;;;;5055492;28;20174;-93
2021/09/28 04:53:24;;;;;;;11.93;6.25;;;13.80;99.90;;;;;;5055022;28;20162;-94
2021/09/28 04:56:13;;;;;;;15.75;6.70;;;13.80;99.90;;;;;;5055391;28;20261;-96
2021/09/28 04:58:45;;;;;;;8.85;6.25;;;13.70;99.90;;;;;;5054583;28;20190;-94
2021/09/28 05:01:23;;;;;;;9.82;6.80;;;13.70;99.90;;;;;;5055390;28;20170;-95
2021/09/28 05:03:49;;;;;;;12.05;6.82;;;13.80;99.90;;;;;;5054955;28;20244;-94
2021/09/28 05:06:15;;;;;;;11.30;7.35;;;13.80;99.90;;;;;;5055465;28;20249;-96
2021/09/28 05:08:46;;;;;;;11.90;7.28;;;13.70;99.90;;;;;;5055910;28;20197;-95
2021/09/28 05:11:36;;;;;;;11.02;7.68;;;13.70;99.90;;;;;;5055441;28;20299;-94
2021/09/28 05:14:05;;;;;;;12.02;7.88;;;13.70;99.90;;;;;;5054836;28;20251;-94
2021/09/28 05:16:40;;;;;;;12.05;7.00;;;13.60;99.90;;;;;;5054731;28;20174;-95
2021/09/28 05:19:11;;;;;;;14.80;7.28;;;13.70;99.90;;;;;;5055044;28;20201;-94
2021/09/28 05:21:40;;;;;;;12.90;7.82;;;13.70;99.90;;;;;;5054939;28;20261;-94
2021/09/28 05:24:20;;;;;;;11.63;7.25;;;13.70;99.90;;;;;;5054935;28;20170;-94
2021/09/28 05:26:55;;;;;;;9.82;7.05;;;13.70;99.90;;;;;;5054711;28;20170;-93
2021/09/28 05:29:21;;;;;;;10.60;7.25;;;13.70;99.90;;;;;;5054320;28;20209;-94
2021/09/28 05:31:50;;;;;;;11.25;6.80;;;13.70;99.90;;;;;;5054226;28;20173;-94
2021/09/28 05:34:16;;;;;;;13.10;6.85;;;13.60;99.90;;;;;;5054464;28;20166;-93
2021/09/28 05:36:43;;;;;;;9.75;7.20;;;13.60;99.90;;;;;;5054580;28;20170;-95
2021/09/28 05:39:20;;;;;;;11.90;6.10;;;13.60;99.90;;;;;;5053923;28;20198;-95
2021/09/28 05:41:52;;;;;;;12.00;6.20;;;13.50;99.90;;;;;;5054136;28;20165;-95
2021/09/28 05:44:42;;;;;;;9.98;6.13;;;13.50;99.90;;;;;;5054118;28;20174;-94
2021/09/28 05:47:11;;;;;;;8.93;5.70;;;13.60;99.90;;;;;;5053967;28;20264;-94
2021/09/28 05:49:39;;;;;;;13.45;5.80;;;13.50;99.90;;;;;;5053592;28;20206;-94
2021/09/28 05:52:14;;;;;;;9.63;6.15;;;13.60;99.90;;;;;;5054174;28;20185;-94
2021/09/28 05:55:04;;;;;;;9.57;6.18;;;13.50;99.90;;;;;;5053855;28;20166;-95
2021/09/28 05:57:30;;;;;;;10.00;5.50;;;13.50;99.90;;;;;;5053969;28;20532;-95
2021/09/28 06:00:05;;;;;;;11.18;6.20;;;13.50;99.90;;;;;;5053709;28;20181;-94
2021/09/28 06:02:32;;;;;;;11.18;6.00;;;13.50;99.90;;;;;;5053918;28;20621;-95
2021/09/28 06:05:02;;;;;;;9.50;5.75;;;13.50;99.90;;;;;;5056480;28;20185;-93
2021/09/28 06:07:30;;;;;;;10.63;5.88;;;13.50;99.90;;;;;;5057822;28;20166;-95
2021/09/28 06:10:01;;;;;;;9.02;5.13;;;13.40;99.90;;;;;;5057627;28;20223;-94
2021/09/28 06:12:29;;;;;;;9.40;5.20;;;13.50;99.90;;;;;;5057661;28;20251;-95
2021/09/28 06:15:09;;;;;;;10.98;5.35;;;13.50;99.90;;;;;;5057568;28;20167;-93
2021/09/28 06:17:35;;;;;;;8.70;4.38;;;13.50;99.90;;;;;;5057590;28;20200;-94
2021/09/28 06:20:20;;;;;;;8.00;4.43;;;13.60;99.90;;;;;;5057319;28;20186;-94
2021/09/28 06:22:56;;;;;;;10.80;4.40;;;13.60;99.90;;;;;;5057511;28;20158;-94
2021/09/28 06:25:33;;;;;;;10.70;4.15;;;13.60;99.90;;;;;;5057131;28;20689;-96
2021/09/28 06:28:18;;;;;;;13.65;4.57;;;13.60;99.90;;;;;;5057119;28;20197;-94
2021/09/28 06:30:48;;;;;;;8.77;3.95;;;13.60;99.90;;;;;;5056841;28;20197;-94
2021/09/28 06:33:14;;;;;;;7.13;3.80;;;13.50;99.90;;;;;;5057332;28;20162;-94
2021/09/28 06:36:11;;;;;;;8.02;3.78;;;13.50;99.90;;;;;;5057192;28;20273;-93
2021/09/28 06:38:47;;;;;;;7.82;4.18;;;13.50;99.90;;;;;;5057033;28;20204;-94
2021/09/28 06:41:14;;;;;;;9.02;3.30;;;13.50;99.90;;;;;;5057230;28;20531;-94
2021/09/28 06:43:39;;;;;;;8.13;3.67;;;13.50;99.90;;;;;;5057347;28;20641;-93
2021/09/28 06:46:27;;;;;;;5.18;3.47;;;13.50;99.90;;;;;;5057192;28;20170;-93
2021/09/28 06:48:57;;;;;;;15.95;4.13;;;13.50;99.90;;;;;;5056790;28;20228;-95
2021/09/28 06:51:30;;;;;;;7.40;3.65;;;13.50;99.90;;;;;;5056960;28;20166;-94
2021/09/28 06:53:56;;;;;;;5.03;2.85;;;13.50;99.90;;;;;;5057361;28;20178;-95
2021/09/28 06:56:28;;;;;;;8.13;3.47;;;13.60;99.90;;;;;;5057046;28;20219;-94
2021/09/28 06:58:57;;;;;;;11.38;3.50;;;13.60;99.90;;;;;;5057078;28;20197;-94
2021/09/28 07:01:25;;;;;;;8.10;3.30;;;13.60;99.90;;;;;;5056930;28;20174;-94
2021/09/28 07:03:53;;;;;;;4.15;2.78;;;13.60;99.90;;;;;;5056898;28;20572;-94
2021/09/28 07:06:21;;;;;;;9.40;2.90;;;13.70;99.90;;;;;;5057033;28;20212;-94
2021/09/28 07:08:49;;;;;;;6.30;2.95;;;13.70;99.90;;;;;;5056713;28;20201;-95
2021/09/28 07:11:17;;;;;;;7.70;3.05;;;13.70;99.90;;;;;;5056536;28;20166;-95
2021/09/28 07:13:58;;;;;;;5.95;3.22;;;13.70;99.90;;;;;;5057496;28;20629;-95
2021/09/28 07:16:30;;;;;;;7.45;2.97;;;13.70;99.90;;;;;;5056565;28;20268;-95
2021/09/28 07:18:58;;;;;;;10.63;2.90;;;13.70;99.90;;;;;;5056588;28;20197;-95
2021/09/28 07:21:28;;;;;;;10.57;3.40;;;13.70;99.90;;;;;;5056205;28;20267;-95
2021/09/28 07:23:54;;;;;;;7.63;2.92;;;13.80;99.90;;;;;;5056572;28;20260;-95
2021/09/28 07:26:22;;;;;;;13.15;4.10;;;13.80;99.90;;;;;;5056521;28;20173;-95
2021/09/28 07:28:49;;;;;;;7.82;3.72;;;13.90;99.90;;;;;;5057266;28;20210;-92
2021/09/28 07:31:24;;;;;;;8.65;3.40;;;13.90;99.90;;;;;;5057535;28;20234;-93
2021/09/28 07:33:59;;;;;;;8.85;3.50;;;14.00;99.90;;;;;;5056955;28;20629;-94
2021/09/28 07:36:25;;;;;;;7.38;3.95;;;14.00;99.90;;;;;;5057692;28;20188;-94
2021/09/28 07:38:55;;;;;;;7.68;3.75;;;14.00;99.90;;;;;;5056078;28;20670;-95
2021/09/28 07:41:22;;;;;;;5.55;3.30;;;14.00;99.90;;;;;;5056671;28;20170;-94
2021/09/28 07:43:48;;;;;;;7.07;3.88;;;14.00;99.90;;;;;;5055976;28;20223;-94
2021/09/28 07:46:18;;;;;;;8.73;3.75;;;14.10;99.90;;;;;;5056712;28;20170;-94
2021/09/28 07:48:50;;;;;;;5.43;3.75;;;14.20;99.90;;;;;;5055533;28;20288;-95
2021/09/28 07:51:32;;;;;;;11.65;4.20;;;14.30;99.90;;;;;;5056285;28;20215;-95
2021/09/28 07:53:58;;;;;;;10.60;4.53;;;14.40;99.90;;;;;;5055580;28;20197;-95
2021/09/28 07:56:59;;;;;;;9.75;5.03;;;14.40;99.90;;;;;;5055234;28;20170;-95
2021/09/28 07:59:29;;;;;;;8.30;4.20;;;14.50;99.90;;;;;;5054908;28;20193;-93
2021/09/28 08:02:20;;;;;;;8.77;4.43;;;14.50;99.90;;;;;;5054730;28;20629;-95
2021/09/28 08:04:47;;;;;;;10.20;4.85;;;14.60;99.90;;;;;;5054959;28;20226;-94
2021/09/28 08:07:21;;;;;;;11.07;4.72;;;14.60;99.90;;;;;;5054976;28;20176;-93
2021/09/28 08:10:01;;;;;;;9.80;4.63;;;14.60;99.90;;;;;;5054850;28;20707;-95
2021/09/28 08:12:47;;;;;;;9.02;4.63;;;14.60;99.90;;;;;;5054817;28;20172;-92
2021/09/28 08:15:13;;;;;;;6.55;4.40;;;14.70;99.90;;;;;;5054804;28;20168;-95
2021/09/28 08:17:49;;;;;;;7.53;4.40;;;14.70;99.90;;;;;;5054494;28;20162;-94
2021/09/28 08:20:22;;;;;;;8.07;4.25;;;14.70;99.90;;;;;;5054348;28;20252;-94
2021/09/28 08:22:59;;;;;;;6.25;4.03;;;14.80;99.90;;;;;;5054236;28;20245;-93
2021/09/28 08:31:10;;;;;;;9.02;3.95;;;14.90;99.90;;;;;;5055597;28;20169;-93
2021/09/28 08:33:37;;;;;;;6.82;3.90;;;15.00;99.90;;;;;;5054825;28;20166;-95
2021/09/28 08:36:05;;;;;;;12.52;4.07;;;15.00;99.90;;;;;;5055125;28;20158;-93
2021/09/28 08:38:31;;;;;;;7.13;3.90;;;15.10;99.90;;;;;;5054724;28;20197;-93
2021/09/28 08:41:14;;;;;;;5.15;3.70;;;15.10;99.90;;;;;;5055040;28;20204;-94
2021/09/28 08:43:42;;;;;;;9.15;3.92;;;15.20;99.90;;;;;;5054541;28;20162;-94
2021/09/28 08:46:15;;;;;;;10.90;4.40;;;15.20;99.90;;;;;;5055221;28;20190;-93
2021/09/28 08:48:43;;;;;;;9.80;4.03;;;15.30;99.90;;;;;;5054537;28;20284;-93
2021/09/28 08:51:19;;;;;;;8.20;3.58;;;15.40;99.90;;;;;;5055061;28;20170;-95
2021/09/28 08:53:50;;;;;;;15.10;4.05;;;15.30;99.90;;;;;;5056891;28;20161;-93
2021/09/28 08:56:21;;;;;;;6.28;2.80;;;15.40;99.90;;;;;;5055567;28;20173;-93
2021/09/28 08:58:58;;;;;;;10.02;3.20;;;15.40;99.90;;;;;;5056006;28;20194;-94
2021/09/28 09:01:26;;;;;;;5.82;2.95;;;15.40;99.90;;;;;;5055453;28;20162;-94
2021/09/28 09:04:19;;;;;;;5.07;3.30;;;15.50;99.90;;;;;;5055088;28;20585;-95
2021/09/28 09:07:20;;;;;;;3.55;2.63;;;15.60;99.90;;;;;;5055791;28;20582;-95
2021/09/28 09:09:51;;;;;;;8.57;3.22;;;15.60;99.90;;;;;;5055003;28;20205;-93
2021/09/28 09:12:50;;;;;;;6.25;2.90;;;15.70;99.90;;;;;;5056325;28;20249;-94
2021/09/28 09:15:24;;;;;;;6.15;2.60;;;15.80;99.90;;;;;;5055319;28;20176;-95
2021/09/28 09:17:56;;;;;;;5.93;2.80;;;15.80;99.90;;;;;;5055508;28;20240;-94
2021/09/28 09:20:38;;;;;;;8.73;2.95;;;15.80;99.90;;;;;;5055176;28;20166;-94
2021/09/28 09:23:26;;;;;;;5.75;2.55;;;15.90;99.90;;;;;;5054749;28;20174;-94
2021/09/28 09:29:27;;;;;;;5.03;1.95;;;15.90;99.90;;;;;;5055084;28;20212;-94
2021/09/28 09:31:57;;;;;;;8.50;2.60;;;16.00;99.90;;;;;;5054921;28;20184;-94
2021/09/28 09:34:25;;;;;;;7.05;2.40;;;16.10;99.90;;;;;;5054905;28;20176;-95
2021/09/28 09:37:44;;;;;;;8.85;2.25;;;16.10;99.90;;;;;;5054241;28;20174;-93
2021/09/28 09:40:46;;;;;;;5.97;1.80;;;16.20;99.90;;;;;;5059020;28;20173;-95
2021/09/28 09:43:17;;;;;;;3.53;2.10;;;16.20;99.90;;;;;;5059378;28;20180;-93
2021/09/28 09:45:51;;;;;;;6.47;1.55;;;16.30;99.90;;;;;;5058943;28;20177;-93
2021/09/28 09:48:34;;;;;;;2.72;0.88;;;16.40;99.90;;;;;;5057806;28;20192;-94
2021/09/28 09:51:20;;;;;;;4.65;1.23;;;16.40;99.90;;;;;;5058254;28;20622;-94
2021/09/28 09:54:00;;;;;;;2.80;1.02;;;16.50;99.90;;;;;;5057621;28;20172;-93
2021/09/28 09:56:42;;;;;;;4.88;1.20;;;16.60;99.90;;;;;;5057991;28;20244;-94
2021/09/28 09:59:09;;;;;;;3.05;1.00;;;16.50;99.90;;;;;;5057810;28;20235;-95
2021/09/28 10:01:36;;;;;;;6.13;1.38;;;16.50;99.90;;;;;;5057288;28;20189;-94
2021/09/28 10:04:11;;;;;;;2.90;1.08;;;16.70;99.90;;;;;;5056622;28;20697;-93
2021/09/28 10:06:38;;;;;;;6.50;1.25;;;16.70;99.90;;;;;;5057483;28;20173;-95
2021/09/28 10:09:22;;;;;;;3.05;1.17;;;16.90;99.90;;;;;;5057243;28;20707;-95
2021/09/28 10:12:00;;;;;;;6.25;1.30;;;16.90;99.90;;;;;;5057054;28;20261;-95
2021/09/28 10:14:46;;;;;;;3.78;1.00;;;17.00;99.90;;;;;;5058550;28;20166;-94
2021/09/28 10:17:28;;;;;;;5.53;1.38;;;17.00;99.90;;;;;;5059261;28;20166;-92
2021/09/28 10:20:31;;;;;;;3.70;1.00;;;17.10;99.90;;;;;;5057881;28;20198;-93
2021/09/28 10:22:58;;;;;;;4.07;1.10;;;17.20;99.90;;;;;;5058655;28;20653;-95
2021/09/28 10:25:45;;;;;;;4.15;0.80;;;17.20;99.90;;;;;;5058141;28;20185;-93
2021/09/28 10:28:13;;;;;;;2.92;1.10;;;17.10;99.90;;;;;;5057498;28;20221;-96
2021/09/28 10:30:44;;;;;;;3.92;1.08;;;17.10;99.90;;;;;;5058995;28;20722;-95
2021/09/28 10:33:26;;;;;;;6.03;1.00;;;17.20;99.90;;;;;;5057647;28;20205;-93
2021/09/28 10:36:08;;;;;;;6.80;1.23;;;17.30;99.90;;;;;;5057149;28;20223;-95
2021/09/28 10:38:46;;;;;;;3.85;1.00;;;17.60;99.90;;;;;;5059429;28;20247;-95
2021/09/28 10:41:44;;;;;;;3.67;1.08;;;17.60;99.90;;;;;;5059540;28;20245;-96
2021/09/28 10:44:53;;;;;;;4.50;0.90;;;17.70;99.90;;;;;;5057288;28;20173;-95
2021/09/28 10:48:07;;;;;;;5.93;1.35;;;17.80;99.90;;;;;;5057615;28;20166;-94
2021/09/28 10:50:43;;;;;;;5.07;1.20;;;18.00;99.90;;;;;;5056644;28;20650;-96
2021/09/28 10:53:29;;;;;;;5.97;1.38;;;17.90;99.90;;;;;;5058671;28;20162;-95
2021/09/28 10:56:15;;;;;;;4.57;1.17;;;17.80;99.90;;;;;;5060715;28;20173;-94
2021/09/28 10:59:01;;;;;;;2.88;1.00;;;17.70;99.90;;;;;;5059890;28;20197;-94
2021/09/28 11:01:32;;;;;;;19.23;1.60;;;17.70;99.90;;;;;;5060703;28;20162;-94
2021/09/28 11:04:07;;;;;;;4.68;1.27;;;17.70;99.90;;;;;;5057051;28;20225;-95
2021/09/28 11:06:56;;;;;;;4.47;1.35;;;17.60;99.90;;;;;;5059985;28;20189;-95
2021/09/28 11:09:43;;;;;;;6.57;1.02;;;17.70;99.90;;;;;;5058220;28;20210;-95
2021/09/28 11:12:12;;;;;;;6.22;1.27;;;17.70;99.90;;;;;;5058870;28;20166;-93
2021/09/28 11:14:44;;;;;;;7.53;1.33;;;17.80;99.90;;;;;;5057701;28;20251;-95
2021/09/28 11:17:31;;;;;;;4.68;1.00;;;17.80;99.90;;;;;;5058616;28;20201;-93
2021/09/28 11:19:57;;;;;;;3.20;1.00;;;17.80;99.90;;;;;;5059637;28;20170;-94
2021/09/28 11:22:27;;;;;;;3.83;0.90;;;17.80;99.90;;;;;;5060219;28;20181;-95
2021/09/28 11:24:55;;;;;;;2.70;0.85;;;17.80;99.90;;;;;;5058943;28;20174;-96
2021/09/28 11:28:19;;;;;;;4.75;1.00;;;17.60;99.90;;;;;;5059377;28;20200;-95
2021/09/28 11:31:14;;;;;;;4.72;1.00;;;17.70;99.90;;;;;;5022097;28;20234;-95
2021/09/28 11:33:49;;;;;;;3.33;0.90;;;17.60;99.90;;;;;;5021402;28;20202;-95
2021/09/28 11:36:18;;;;;;;3.75;0.98;;;17.80;99.90;;;;;;5064805;28;20216;-95
2021/09/28 11:38:47;;;;;;;9.32;1.33;;;17.80;99.90;;;;;;5059321;28;20208;-94
2021/09/28 11:41:33;;;;;;;4.95;1.20;;;17.80;99.90;;;;;;5058216;28;20178;-95
2021/09/28 11:44:07;;;;;;;4.32;1.08;;;17.70;99.90;;;;;;5058119;28;20177;-94
2021/09/28 11:46:36;;;;;;;6.18;1.05;;;17.70;99.90;;;;;;5058256;28;20626;-94
2021/09/28 11:49:05;;;;;;;3.47;1.00;;;17.70;99.90;;;;;;5058444;28;20267;-95
2021/09/28 11:51:41;;;;;;;3.70;1.10;;;17.80;99.90;;;;;;5058462;28;20170;-95
2021/09/28 11:54:10;;;;;;;3.80;1.30;;;18.00;99.90;;;;;;5058892;28;20162;-94
2021/09/28 11:56:47;;;;;;;8.65;1.77;;;18.10;99.90;;;;;;5058101;28;20285;-95
2021/09/28 11:59:16;;;;;;;5.65;1.23;;;18.20;99.90;;;;;;5058416;28;20204;-93
2021/09/28 12:01:45;;;;;;;3.80;1.42;;;18.30;99.90;;;;;;5056458;28;20174;-94
2021/09/28 12:07:21;;;;;;;4.85;1.35;;;18.40;99.90;;;;;;5057809;28;20154;-94
2021/09/28 12:09:51;;;;;;;5.32;1.20;;;18.50;99.90;;;;;;5056536;28;20214;-93
2021/09/28 12:12:22;;;;;;;6.10;1.10;;;18.70;99.90;;;;;;5057035;28;20166;-94
2021/09/28 12:15:07;;;;;;;5.00;1.42;;;18.70;99.90;;;;;;5057255;28;20706;-95
2021/09/28 12:17:45;;;;;;;4.93;1.35;;;18.70;99.90;;;;;;5056625;28;20162;-95
2021/09/28 12:20:19;;;;;;;5.13;1.33;;;18.70;99.90;;;;;;5057514;28;20622;-93
2021/09/28 12:23:17;;;;;;;7.05;1.40;;;18.70;99.90;;;;;;5055829;28;20190;-95
2021/09/28 12:25:46;;;;;;;3.92;1.35;;;18.70;99.90;;;;;;5056759;28;20641;-94
2021/09/28 12:28:30;;;;;;;3.65;1.17;;;18.70;99.90;;;;;;5056345;28;20201;-94
2021/09/28 12:31:08;;;;;;;6.47;1.70;;;18.70;99.90;;;;;;5055538;28;20197;-95
2021/09/28 12:33:43;;;;;;;5.25;1.65;;;18.60;99.90;;;;;;5056661;28;20614;-93
2021/09/28 12:36:09;;;;;;;7.07;1.90;;;18.60;99.90;;;;;;5056800;28;20181;-94
2021/09/28 12:38:38;;;;;;;7.72;2.08;;;18.50;99.90;;;;;;5056458;28;20527;-95
2021/09/28 12:41:09;;;;;;;8.00;2.10;;;18.40;99.90;;;;;;5056284;28;20723;-94
2021/09/28 12:43:38;;;;;;;6.47;2.00;;;18.30;99.90;;;;;;5056075;28;20533;-94
2021/09/28 12:46:10;;;;;;;6.68;1.75;;;18.10;99.90;;;;;;5055929;28;20174;-94
2021/09/28 12:48:46;;;;;;;7.75;2.03;;;18.00;99.90;;;;;;5056644;28;20202;-95
2021/09/28 12:51:19;;;;;;;6.40;1.95;;;18.00;99.90;;;;;;5056327;28;20172;-95
2021/09/28 12:53:49;;;;;;;6.88;2.17;;;18.00;99.90;;;;;;5055943;28;20170;-95
2021/09/28 12:56:18;;;;;;;8.38;2.35;;;18.00;99.90;;;;;;5056687;28;20173;-94
2021/09/28 12:58:47;;;;;;;5.28;2.20;;;18.10;99.90;;;;;;5056428;28;20197;-95
2021/09/28 13:01:15;;;;;;;5.72;2.70;;;18.10;99.90;;;;;;5056040;28;20201;-95
2021/09/28 13:03:42;;;;;;;5.13;2.10;;;18.00;99.90;;;;;;5054243;28;20279;-95
2021/09/28 13:06:31;;;;;;;7.00;2.30;;;18.10;99.90;;;;;;5054774;28;20174;-94
2021/09/28 13:08:57;;;;;;;7.32;2.65;;;18.10;99.90;;;;;;5055550;28;20201;-94
2021/09/28 13:11:27;;;;;;;6.50;1.92;;;18.00;99.90;;;;;;5054798;28;20224;-95
2021/09/28 13:14:10;;;;;;;6.43;2.20;;;18.10;99.90;;;;;;5054692;28;20546;-93
2021/09/28 13:16:41;;;;;;;6.88;2.10;;;18.00;99.90;;;;;;5054997;28;20256;-94
2021/09/28 13:19:07;;;;;;;5.95;2.03;;;18.00;99.90;;;;;;5055221;28;20689;-96
2021/09/28 13:21:52;;;;;;;7.22;2.25;;;17.90;99.90;;;;;;5055566;28;20170;-94
2021/09/28 13:24:18;;;;;;;4.70;1.45;;;17.90;99.90;;;;;;5054799;28;20637;-95
2021/09/28 13:26:52;;;;;;;9.05;1.70;;;17.90;99.90;;;;;;5054778;28;20178;-95
2021/09/28 13:29:24;;;;;;;2.95;1.23;;;17.90;99.90;;;;;;5054374;28;20320;-94
2021/09/28 13:31:53;;;;;;;6.30;1.58;;;17.90;99.90;;;;;;5054365;28;20259;-95